METAR Data
IDs: Format: Raw Decoded Include TAF

Data at: 1530 UTC 21 Sep 2018

KVDF 211515Z AUTO 00000KT 10SM SCT019 BKN024 BKN030 28/24 A3010 RMK AO2
KVDF 211455Z AUTO 14004KT 10SM SCT017 SCT024 30/24 A3011 RMK AO2
KVDF 211435Z AUTO 12004KT 10SM SCT013 29/25 A3011 RMK AO2
KVDF 211415Z AUTO 14005KT 10SM SCT011 28/25 A3011 RMK AO2
KVDF 211355Z AUTO 00000KT 10SM CLR 27/25 A3012 RMK AO2
KVDF 211335Z AUTO 10003KT 10SM CLR 26/26 A3011 RMK AO2
KVDF 211315Z AUTO 00000KT 10SM CLR 26/25 A3010 RMK AO2
KVDF 211255Z AUTO 00000KT 10SM CLR 25/25 A3009 RMK AO2
KVDF 211235Z AUTO 00000KT 5SM BR CLR 24/23 A3009 RMK AO2
KVDF 211215Z AUTO 00000KT 3SM BR CLR 23/22 A3007 RMK AO2
KVDF 211155Z AUTO 00000KT 3SM BR CLR 23/22 A3007 RMK AO2
KVDF 211135Z AUTO 00000KT 3SM BR CLR 22/22 A3006 RMK AO2
KVDF 211115Z AUTO 00000KT 2 1/2SM BR CLR 22/22 A3006 RMK AO2
KVDF 211055Z AUTO 00000KT 2 1/2SM BR CLR 22/22 A3006 RMK AO2
KVDF 211035Z AUTO 00000KT 3SM BR CLR 22/22 A3006 RMK AO2
KVDF 211015Z AUTO 00000KT 3SM BR CLR 22/22 A3006 RMK AO2
KVDF 210955Z AUTO 00000KT 5SM BR CLR 22/22 A3005 RMK AO2
KVDF 210935Z AUTO 00000KT 3SM BR CLR 22/22 A3005 RMK AO2
KVDF 210915Z AUTO 00000KT 1 1/4SM BR VV007 22/22 A3006 RMK AO2
KVDF 210855Z AUTO 00000KT 2SM BR CLR 22/22 A3006 RMK AO2
KVDF 210835Z AUTO 00000KT 3SM BR CLR 22/22 A3005 RMK AO2
KVDF 210815Z AUTO 00000KT 3SM BR CLR 22/22 A3005 RMK AO2
KVDF 210755Z AUTO 00000KT 4SM BR CLR 22/22 A3005 RMK AO2
KVDF 210735Z AUTO 00000KT 2 1/2SM BR CLR 22/22 A3004 RMK AO2 VIS 1 1/2V4
KVDF 210715Z AUTO 00000KT 1 1/4SM BR VV007 22/22 A3005 RMK AO2
KVDF 210655Z AUTO 00000KT 4SM BR CLR 23/22 A3005 RMK AO2
KVDF 210635Z AUTO 00000KT 3SM BR CLR 23/22 A3006 RMK AO2
KVDF 210615Z AUTO 00000KT 2 1/2SM BR CLR 22/22 A3006 RMK AO2
KVDF 210555Z AUTO 00000KT 2 1/2SM BR SCT002 23/22 A3006 RMK AO2
KVDF 210535Z AUTO 00000KT 3/4SM BR BKN002 22/22 A3007 RMK AO2
KVDF 210515Z AUTO 00000KT 1 1/4SM BR VV007 22/22 A3008 RMK AO2 VIS 3/4V2 1/2
KVDF 210455Z AUTO 00000KT 2SM BR CLR 22/22 A3008 RMK AO2
KVDF 210435Z AUTO 00000KT 3SM BR CLR 23/22 A3008 RMK AO2
KVDF 210415Z AUTO 00000KT 4SM BR CLR 23/22 A3008 RMK AO2
KVDF 210355Z AUTO 00000KT 4SM BR CLR 23/23 A3008 RMK AO2
KVDF 210335Z AUTO 00000KT 4SM BR CLR 23/23 A3009 RMK AO2
KVDF 210315Z AUTO 00000KT 7SM CLR 23/23 A3009 RMK AO2
KVDF 210255Z AUTO 00000KT 2 1/2SM BR CLR 23/23 A3009 RMK AO2 VIS 2V4
KVDF 210235Z AUTO 00000KT 5SM BR CLR 23/23 A3009 RMK AO2
KVDF 210215Z AUTO 00000KT 7SM SCT055 SCT070 SCT100 23/23 A3009 RMK AO2
KVDF 210155Z AUTO 00000KT 5SM RA SCT036 BKN050 OVC100 23/23 A3009 RMK AO2
KVDF 210135Z AUTO 00000KT 7SM -RA SCT041 BKN048 OVC055 23/23 A3009 RMK AO2
KVDF 210115Z AUTO 30004KT 7SM -RA OVC039 23/23 A3007 RMK AO2
KVDF 210055Z AUTO 00000KT 1 3/4SM +RA OVC037 23/23 A3007 RMK AO2 P0001
KVDF 210035Z AUTO 00000KT 10SM BKN037 OVC043 23/22 A3006 RMK AO2 P0001
KVDF 210015Z AUTO 00000KT 10SM SCT039 BKN049 OVC065 23/22 A3005 RMK AO2
KVDF 202355Z AUTO 00000KT 3SM +RA SCT028 BKN050 OVC080 23/22 A3004 RMK AO2 P0044
KVDF 202335Z AUTO 30003G09KT 2 1/2SM +RA SCT011 BKN030 OVC060 23/21 A3003 RMK AO2 P0044
KVDF 202315Z AUTO 21012G23KT 1SM +RA BKN008 OVC013 24/22 A3004 RMK AO2 P0022
KVDF 202255Z AUTO 17012G17KT 1 1/4SM +RA BKN013 BKN021 OVC048 25/23 A3003 RMK AO2 VIS 3/4V3 P0035
KVDF 202235Z AUTO 32012KT 5SM +RA OVC050 28/22 A3000 RMK AO2 P0003
KVDF 202215Z AUTO 17009G17KT 135V195 10SM BKN050 BKN060 30/23 A2999 RMK AO2
KVDF 202155Z AUTO 21006KT 10SM BKN050 BKN075 BKN085 30/25 A2998 RMK AO2
KVDF 202135Z AUTO 00000KT 10SM SCT055 SCT065 SCT075 33/23 A2997 RMK AO2
KVDF 202115Z AUTO 00000KT 10SM SCT055 SCT065 32/25 A2998 RMK AO2
KVDF 202055Z AUTO 00000KT 10SM CLR 34/25 A2998 RMK AO2
KVDF 202035Z AUTO 00000KT 10SM CLR 35/23 A2998 RMK AO2
KVDF 202015Z AUTO 08003KT 10SM SCT120 35/23 A2998 RMK AO2
KVDF 201955Z AUTO 06004KT 10SM SCT110 35/25 A2999 RMK AO2
KVDF 201935Z AUTO 00000KT 10SM SCT048 35/23 A2999 RMK AO2
KVDF 201915Z AUTO 10003KT 10SM CLR 33/23 A3000 RMK AO2
KVDF 201855Z AUTO 00000KT 10SM SCT065 SCT070 35/23 A3001 RMK AO2
KVDF 201835Z AUTO 00000KT 10SM SCT044 35/23 A3002 RMK AO2
KVDF 201815Z AUTO 00000KT 10SM SCT044 33/24 A3003 RMK AO2
KVDF 201755Z AUTO 00000KT 10SM CLR 33/25 A3004 RMK AO2
KVDF 201735Z AUTO 04003KT 10SM CLR 33/24 A3005 RMK AO2
KVDF 201715Z AUTO 00000KT 10SM CLR 33/24 A3006 RMK AO2
KVDF 201655Z AUTO 00000KT 10SM CLR 32/24 A3006 RMK AO2
KVDF 201635Z AUTO 00000KT 10SM CLR 32/24 A3007 RMK AO2
KVDF 201615Z AUTO 00000KT 10SM CLR 32/25 A3007 RMK AO2
KVDF 201555Z AUTO 00000KT 10SM CLR 32/25 A3008 RMK AO2
KVDF 201535Z AUTO 00000KT 10SM CLR 31/25 A3008 RMK AO2
KVDF 201515Z AUTO 00000KT 10SM CLR 31/25 A3008 RMK AO2
KVDF 201455Z AUTO 00000KT 10SM CLR 30/25 A3008 RMK AO2
KVDF 201435Z AUTO 00000KT 10SM CLR 30/25 A3007 RMK AO2
KVDF 201415Z AUTO 00000KT 10SM CLR 29/25 A3007 RMK AO2
KVDF 201355Z AUTO 00000KT 10SM CLR 28/25 A3007 RMK AO2
KVDF 201335Z AUTO 00000KT 10SM CLR 27/25 A3006 RMK AO2
KVDF 201315Z AUTO 00000KT 10SM CLR 26/25 A3006 RMK AO2
KVDF 201255Z AUTO 00000KT 10SM CLR 25/25 A3005 RMK AO2
KVDF 201235Z AUTO 00000KT 10SM CLR 24/23 A3004 RMK AO2
KVDF 201215Z AUTO 00000KT 7SM CLR 23/23 A3003 RMK AO2
KVDF 201155Z AUTO 00000KT 7SM CLR 22/22 A3003 RMK AO2
KVDF 201135Z AUTO 00000KT 4SM BR CLR 22/22 A3002 RMK AO2
KVDF 201115Z AUTO 00000KT 7SM CLR 22/22 A3001 RMK AO2
KVDF 201055Z AUTO 00000KT 5SM BR CLR 22/22 A3001 RMK AO2
KVDF 201035Z AUTO 00000KT 5SM BR CLR 22/22 A3000 RMK AO2
KVDF 201015Z AUTO 00000KT 3SM BR CLR 22/22 A2999 RMK AO2
KVDF 200955Z AUTO 00000KT 4SM BR CLR 22/22 A2999 RMK AO2
KVDF 200935Z AUTO 00000KT 5SM BR CLR 22/22 A2999 RMK AO2
KVDF 200915Z AUTO 00000KT 5SM BR CLR 22/22 A2999 RMK AO2
KVDF 200855Z AUTO 00000KT 5SM BR CLR 22/22 A2998 RMK AO2
KVDF 200835Z AUTO 00000KT 3SM BR CLR 22/22 A2998 RMK AO2
KVDF 200815Z AUTO 00000KT 4SM BR CLR 22/22 A2998 RMK AO2
KVDF 200755Z AUTO 00000KT 5SM BR CLR 22/22 A2998 RMK AO2
KVDF 200735Z AUTO 00000KT 7SM CLR 23/22 A2998 RMK AO2
KVDF 200715Z AUTO 00000KT 3SM BR CLR 22/22 A2998 RMK AO2
KVDF 200655Z AUTO 00000KT 7SM CLR 23/22 A2998 RMK AO2
KVDF 200635Z AUTO 00000KT 4SM BR CLR 23/22 A2999 RMK AO2
KVDF 200615Z AUTO 00000KT 5SM BR CLR 23/22 A3000 RMK AO2
KVDF 200555Z AUTO 00000KT 5SM BR CLR 23/22 A3001 RMK AO2
KVDF 200535Z AUTO 00000KT 7SM CLR 23/22 A3002 RMK AO2
KVDF 200515Z AUTO 00000KT 5SM BR CLR 23/23 A3002 RMK AO2
KVDF 200455Z AUTO 00000KT 4SM BR CLR 23/23 A3002 RMK AO2
KVDF 200435Z AUTO 00000KT 10SM SCT060 SCT080 23/23 A3002 RMK AO2
KVDF 200415Z AUTO 20003KT 7SM SCT060 23/23 A3001 RMK AO2
KVDF 200355Z AUTO 00000KT 10SM CLR 23/23 A3001 RMK AO2
KVDF 200335Z AUTO 00000KT 10SM CLR 23/23 A3001 RMK AO2